createdAt,value
2019-05-01T00:01:53.014Z,9.54
2019-05-01T00:04:54.484Z,9.69
2019-05-01T00:07:27.001Z,9.92
2019-05-01T00:09:53.664Z,9.96
2019-05-01T00:12:20.606Z,10.01
2019-05-01T00:14:47.458Z,9.79
2019-05-01T00:17:14.244Z,10.10
2019-05-01T00:19:41.011Z,10.07
2019-05-01T00:22:07.790Z,10.08
2019-05-01T00:24:34.554Z,10.22
2019-05-01T00:27:01.136Z,10.27
2019-05-01T00:29:28.023Z,10.31
2019-05-01T00:31:54.893Z,10.34
2019-05-01T00:34:21.625Z,10.51
2019-05-01T00:36:48.482Z,10.46
2019-05-01T00:39:15.448Z,10.44
2019-05-01T00:41:42.029Z,10.45
2019-05-01T00:44:08.790Z,10.54
2019-05-01T00:46:35.485Z,10.59
2019-05-01T00:49:02.204Z,10.56
2019-05-01T00:51:28.905Z,10.52
2019-05-01T00:53:55.669Z,10.61
2019-05-01T00:56:29.209Z,10.57
2019-05-01T00:59:15.640Z,10.57
2019-05-01T01:01:57.300Z,10.52
2019-05-01T01:04:24.002Z,10.48
2019-05-01T01:06:50.871Z,10.36
2019-05-01T01:09:17.739Z,10.37
2019-05-01T01:11:44.526Z,10.44
2019-05-01T01:14:11.205Z,10.58
2019-05-01T01:16:37.996Z,10.66
2019-05-01T01:19:04.785Z,10.72
2019-05-01T01:21:31.572Z,10.74
2019-05-01T01:23:58.324Z,10.71
2019-05-01T01:26:25.092Z,10.72
2019-05-01T01:28:51.873Z,10.84
2019-05-01T01:31:18.640Z,10.81
2019-05-01T01:33:45.443Z,10.86
2019-05-01T01:36:12.241Z,10.80
2019-05-01T01:38:38.991Z,10.76
2019-05-01T01:41:05.845Z,10.67
2019-05-01T01:43:46.978Z,10.74
2019-05-01T01:46:15.577Z,10.78
2019-05-01T01:48:42.426Z,10.71
2019-05-01T01:51:09.194Z,10.76
2019-05-01T01:53:36.104Z,10.57
2019-05-01T01:56:02.854Z,10.54
2019-05-01T01:58:29.924Z,10.40
2019-05-01T02:01:16.668Z,10.33
2019-05-01T02:03:46.598Z,10.32
2019-05-01T02:06:13.468Z,10.17
2019-05-01T02:08:40.234Z,10.08
2019-05-01T02:11:07.129Z,9.99
2019-05-01T02:13:33.909Z,9.89
2019-05-01T02:16:00.655Z,9.87
2019-05-01T02:18:27.422Z,9.70
2019-05-01T02:20:54.072Z,9.64
2019-05-01T02:23:20.855Z,9.72
2019-05-01T02:25:47.611Z,9.68
2019-05-01T02:28:34.244Z,9.66
2019-05-01T02:31:28.407Z,9.78
2019-05-01T02:33:48.338Z,9.78
2019-05-01T02:36:36.448Z,9.76
2019-05-01T02:39:07.508Z,9.83
2019-05-01T02:41:41.319Z,9.80
2019-05-01T02:44:30.103Z,9.91
2019-05-01T02:47:00.286Z,9.91
2019-05-01T02:49:34.271Z,9.98
2019-05-01T02:52:03.152Z,9.92
2019-05-01T02:54:30.805Z,9.87
2019-05-01T02:57:03.961Z,9.87
2019-05-01T02:59:32.632Z,9.72
2019-05-01T03:02:01.407Z,9.84
2019-05-01T03:04:28.391Z,9.76
2019-05-01T03:06:55.234Z,9.70
2019-05-01T03:09:22.537Z,9.63
2019-05-01T03:11:52.598Z,9.60
2019-05-01T03:14:22.987Z,9.56
2019-05-01T03:16:53.027Z,9.63
2019-05-01T03:19:42.480Z,9.70
2019-05-01T03:22:30.945Z,9.63
2019-05-01T03:24:58.143Z,9.54
2019-05-01T03:27:25.112Z,9.61
2019-05-01T03:29:51.917Z,9.61
2019-05-01T03:32:19.904Z,9.70
2019-05-01T03:34:52.296Z,9.74
2019-05-01T03:37:15.868Z,9.78
2019-05-01T03:39:43.056Z,9.63
2019-05-01T03:42:10.082Z,9.65
2019-05-01T03:44:36.940Z,9.54
2019-05-01T03:47:03.696Z,9.49
2019-05-01T03:49:30.458Z,9.41
2019-05-01T03:51:57.260Z,9.43
2019-05-01T03:54:24.239Z,9.41
2019-05-01T03:56:51.031Z,9.48
2019-05-01T03:59:18.832Z,9.49
2019-05-01T04:02:33.900Z,9.60
2019-05-01T04:04:58.975Z,9.62
2019-05-01T04:07:26.016Z,9.53
2019-05-01T04:09:52.998Z,9.35
2019-05-01T04:12:19.845Z,9.23
2019-05-01T04:14:47.618Z,9.17
2019-05-01T04:17:23.826Z,9.10
2019-05-01T04:19:50.589Z,9.45
2019-05-01T04:22:17.439Z,9.50
2019-05-01T04:24:44.208Z,9.63
2019-05-01T04:27:16.525Z,9.72
2019-05-01T04:29:53.111Z,9.71
2019-05-01T04:32:22.639Z,9.75
2019-05-01T04:35:21.887Z,9.84
2019-05-01T04:37:48.869Z,9.95
2019-05-01T04:40:18.731Z,10.11
2019-05-01T04:42:45.419Z,10.13
2019-05-01T04:45:12.201Z,10.23
2019-05-01T04:47:38.954Z,10.23
2019-05-01T04:50:05.802Z,10.23
2019-05-01T04:52:32.976Z,10.32
2019-05-01T04:54:59.856Z,10.41
2019-05-01T04:57:26.627Z,10.52
2019-05-01T04:59:53.398Z,10.73
2019-05-01T05:02:29.252Z,10.94
2019-05-01T05:04:56.071Z,11.06
2019-05-01T05:07:23.231Z,11.21
2019-05-01T05:09:50.608Z,11.02
2019-05-01T05:12:26.952Z,11.23
2019-05-01T05:14:58.627Z,11.62
2019-05-01T05:17:25.802Z,12.05
2019-05-01T05:19:52.647Z,12.15
2019-05-01T05:22:19.403Z,12.51
2019-05-01T05:24:46.486Z,12.82
2019-05-01T05:27:14.651Z,13.02
2019-05-01T05:29:43.866Z,13.35
2019-05-01T05:32:12.835Z,13.70
2019-05-01T05:34:41.771Z,13.86
2019-05-01T05:37:16.994Z,13.45
2019-05-01T05:39:45.730Z,13.65
2019-05-01T05:42:13.476Z,14.14
2019-05-01T05:44:40.645Z,14.25
2019-05-01T05:47:08.352Z,14.28
2019-05-01T05:49:35.427Z,13.86
2019-05-01T05:52:14.737Z,13.73
2019-05-01T05:54:55.234Z,13.07
2019-05-01T05:57:31.572Z,13.15
2019-05-01T06:00:07.830Z,12.90
2019-05-01T06:02:48.954Z,12.79
2019-05-01T06:05:38.387Z,13.21
2019-05-01T06:08:09.907Z,13.43
2019-05-01T06:10:53.539Z,13.57
2019-05-01T06:13:42.647Z,13.78
2019-05-01T06:16:17.398Z,12.93
2019-05-01T06:18:53.536Z,12.61
2019-05-01T06:21:54.685Z,12.53
2019-05-01T06:24:26.051Z,12.36
2019-05-01T06:26:52.809Z,12.69
2019-05-01T06:29:19.565Z,12.60
2019-05-01T06:31:46.549Z,12.64
2019-05-01T06:34:13.306Z,12.68
2019-05-01T06:36:44.123Z,12.46
2019-05-01T06:39:11.966Z,12.80
2019-05-01T06:41:42.936Z,12.94
2019-05-01T06:44:18.370Z,13.23
2019-05-01T06:46:51.375Z,13.57
2019-05-01T06:49:31.538Z,13.40
2019-05-01T06:51:59.736Z,14.05
2019-05-01T06:54:52.118Z,14.87
2019-05-01T06:57:16.505Z,14.88
2019-05-01T06:59:43.453Z,14.53
2019-05-01T07:02:15.978Z,14.74
2019-05-01T07:04:44.936Z,15.10
2019-05-01T07:07:24.684Z,15.79
2019-05-01T07:09:44.070Z,15.47
2019-05-01T07:12:16.923Z,14.35
2019-05-01T07:14:47.161Z,13.92
2019-05-01T07:17:13.513Z,13.61
2019-05-01T07:19:59.910Z,13.37
2019-05-01T07:22:26.674Z,13.59
2019-05-01T07:24:54.061Z,13.46
2019-05-01T07:27:23.649Z,13.20
2019-05-01T07:32:41.194Z,13.79
2019-05-01T07:35:09.136Z,13.62
2019-05-01T07:37:38.677Z,13.50
2019-05-01T07:40:06.391Z,13.76
2019-05-01T07:42:37.714Z,15.20
2019-05-01T07:45:38.943Z,17.48
2019-05-01T07:48:05.611Z,17.42
2019-05-01T07:50:32.987Z,16.00
2019-05-01T07:52:59.772Z,16.84
2019-05-01T07:55:35.943Z,19.98
2019-05-01T07:58:05.524Z,20.94
2019-05-01T08:01:22.355Z,18.68
2019-05-01T08:03:49.117Z,19.46
2019-05-01T08:06:20.854Z,23.16
2019-05-01T08:08:44.456Z,20.67
2019-05-01T08:11:11.228Z,19.74
2019-05-01T08:13:37.985Z,18.68
2019-05-01T08:16:07.234Z,18.42
2019-05-01T08:18:45.499Z,19.88
2019-05-01T08:21:26.209Z,19.84
2019-05-01T08:23:53.402Z,21.02
2019-05-01T08:26:20.074Z,20.20
2019-05-01T08:29:08.120Z,20.73
2019-05-01T08:31:50.329Z,20.07
2019-05-01T08:34:20.769Z,19.76
2019-05-01T08:36:48.461Z,19.52
2019-05-01T08:39:15.302Z,20.55
2019-05-01T08:41:42.092Z,20.07
2019-05-01T08:44:08.751Z,19.78
2019-05-01T08:46:50.856Z,20.14
2019-05-01T08:49:21.627Z,18.82
2019-05-01T08:51:48.336Z,21.51
2019-05-01T08:54:15.163Z,23.83
2019-05-01T08:56:43.674Z,23.84
2019-05-01T08:59:10.544Z,22.32
2019-05-01T09:01:37.248Z,24.22
2019-05-01T09:04:12.552Z,27.64
2019-05-01T09:06:34.776Z,22.84
2019-05-01T09:09:03.062Z,22.96
2019-05-01T09:11:31.738Z,23.28
2019-05-01T09:14:00.076Z,23.22
2019-05-01T09:16:28.398Z,24.83
2019-05-01T09:18:55.486Z,23.15
2019-05-01T09:21:22.153Z,21.76
2019-05-01T09:23:51.467Z,20.13
2019-05-01T09:26:37.380Z,21.71
2019-05-01T09:29:11.169Z,20.39
2019-05-01T09:31:36.347Z,21.06
2019-05-01T09:34:04.556Z,21.92
2019-05-01T09:36:31.515Z,21.96
2019-05-01T09:38:58.259Z,21.58
2019-05-01T09:41:37.448Z,22.70
2019-05-01T09:43:53.593Z,23.03
2019-05-01T09:46:20.367Z,26.50
2019-05-01T09:48:47.360Z,24.47
2019-05-01T09:51:33.786Z,25.79
2019-05-01T09:54:09.709Z,26.58
2019-05-01T09:56:34.507Z,24.41
2019-05-01T09:59:01.258Z,25.95
2019-05-01T10:01:31.984Z,24.14
2019-05-01T10:03:56.712Z,24.31
2019-05-01T10:06:23.474Z,22.72
2019-05-01T10:08:50.195Z,22.33
2019-05-01T10:11:16.953Z,21.53
2019-05-01T10:13:43.644Z,21.70
2019-05-01T10:16:10.408Z,21.64
2019-05-01T10:18:37.089Z,21.67
2019-05-01T10:21:03.842Z,23.73
2019-05-01T10:23:30.629Z,23.51
2019-05-01T10:25:59.211Z,23.33
2019-05-01T10:28:45.033Z,24.07
2019-05-01T10:31:24.091Z,26.28
2019-05-01T10:33:52.480Z,24.75
2019-05-01T10:36:38.692Z,22.82
2019-05-01T10:39:07.858Z,22.65
2019-05-01T10:41:34.523Z,23.18
2019-05-01T10:44:01.202Z,24.46
2019-05-01T10:46:27.966Z,25.28
2019-05-01T10:48:57.187Z,24.46
2019-05-01T10:51:23.421Z,26.74
2019-05-01T10:53:50.193Z,28.43
2019-05-01T10:56:16.957Z,27.35
2019-05-01T10:58:43.548Z,26.48
2019-05-01T11:01:19.258Z,27.37
2019-05-01T11:03:45.920Z,25.57
2019-05-01T11:06:12.678Z,25.36
2019-05-01T11:08:39.453Z,24.68
2019-05-01T11:11:06.208Z,25.10
2019-05-01T11:13:32.993Z,26.15
2019-05-01T11:15:59.656Z,25.71
2019-05-01T11:18:26.412Z,24.39
2019-05-01T11:20:53.086Z,23.35
2019-05-01T11:23:19.806Z,23.49
2019-05-01T11:25:46.610Z,26.43
2019-05-01T11:28:13.300Z,24.76
2019-05-01T11:30:39.892Z,24.50
2019-05-01T11:33:13.003Z,25.70
2019-05-01T11:36:09.638Z,25.91
2019-05-01T11:38:50.951Z,28.04
2019-05-01T11:41:30.655Z,25.81
2019-05-01T11:43:57.418Z,25.32
2019-05-01T11:46:24.010Z,27.88
2019-05-01T11:48:50.686Z,28.87
2019-05-01T11:51:17.465Z,26.52
2019-05-01T11:53:44.228Z,25.55
2019-05-01T11:56:11.018Z,26.11
2019-05-01T11:58:37.782Z,29.89
2019-05-01T12:01:05.149Z,32.21
2019-05-01T12:03:31.867Z,30.37
2019-05-01T12:05:58.667Z,28.66
2019-05-01T12:08:25.373Z,24.34
2019-05-01T12:10:52.059Z,24.78
2019-05-01T12:13:18.637Z,24.89
2019-05-01T12:15:48.531Z,25.64
2019-05-01T12:18:15.295Z,27.73
2019-05-01T12:20:42.030Z,27.36
2019-05-01T12:23:08.719Z,28.40
2019-05-01T12:25:35.399Z,27.62
2019-05-01T12:28:03.163Z,25.63
2019-05-01T12:30:29.849Z,26.18
2019-05-01T12:32:56.408Z,28.68
2019-05-01T12:35:23.210Z,28.27
2019-05-01T12:37:50.859Z,29.29
2019-05-01T12:40:19.253Z,29.65
2019-05-01T12:42:46.171Z,31.81
2019-05-01T12:45:13.773Z,26.97
2019-05-01T12:48:00.220Z,26.32
2019-05-01T12:50:27.006Z,25.24
2019-05-01T12:53:15.380Z,29.48
2019-05-01T12:56:04.427Z,27.11
2019-05-01T12:58:32.030Z,31.13
2019-05-01T13:00:58.719Z,32.29
2019-05-01T13:03:25.382Z,34.77
2019-05-01T13:05:52.061Z,34.58
2019-05-01T13:08:18.875Z,33.45
2019-05-01T13:10:45.552Z,34.56
2019-05-01T13:13:12.366Z,31.28
2019-05-01T13:15:39.144Z,31.28
2019-05-01T13:18:05.925Z,32.31
2019-05-01T13:20:32.688Z,33.34
2019-05-01T13:22:59.343Z,34.13
2019-05-01T13:25:26.134Z,34.09
2019-05-01T13:27:59.254Z,29.23
2019-05-01T13:30:35.410Z,26.77
2019-05-01T13:33:02.178Z,27.58
2019-05-01T13:35:30.537Z,29.10
2019-05-01T13:37:57.641Z,30.53
2019-05-01T13:40:24.359Z,27.18
2019-05-01T13:42:51.175Z,30.39
2019-05-01T13:45:18.047Z,30.57
2019-05-01T13:47:44.822Z,31.86
2019-05-01T13:50:11.914Z,30.83
2019-05-01T13:52:38.601Z,29.88
2019-05-01T13:55:05.604Z,30.30
2019-05-01T13:57:32.394Z,31.31
2019-05-01T13:59:59.174Z,29.96
2019-05-01T14:02:25.946Z,32.71
2019-05-01T14:04:52.701Z,35.18
2019-05-01T14:07:19.382Z,36.77
2019-05-01T14:09:46.038Z,31.84
2019-05-01T14:12:12.818Z,33.55
2019-05-01T14:14:39.587Z,29.70
2019-05-01T14:17:06.473Z,28.26
2019-05-01T14:19:34.935Z,28.51
2019-05-01T14:22:30.566Z,31.75
2019-05-01T14:24:58.422Z,33.66
2019-05-01T14:27:25.000Z,28.99
2019-05-01T14:29:51.759Z,27.24
2019-05-01T14:32:18.537Z,27.36
2019-05-01T14:34:45.290Z,29.13
2019-05-01T14:37:12.111Z,28.38
2019-05-01T14:39:39.803Z,29.90
2019-05-01T14:42:06.601Z,30.06
2019-05-01T14:44:37.021Z,28.25
2019-05-01T14:47:01.834Z,29.36
2019-05-01T14:49:28.381Z,28.79
2019-05-01T14:51:55.162Z,26.44
2019-05-01T14:54:21.718Z,27.96
2019-05-01T14:56:48.388Z,28.39
2019-05-01T14:59:15.042Z,25.36
2019-05-01T15:01:41.838Z,24.59
2019-05-01T15:04:08.527Z,26.17
2019-05-01T15:06:35.288Z,24.36
2019-05-01T15:09:04.289Z,24.14
2019-05-01T15:11:31.088Z,25.33
2019-05-01T15:14:16.058Z,27.48
2019-05-01T15:16:53.471Z,26.42
2019-05-01T15:19:22.444Z,27.80
2019-05-01T15:21:49.253Z,27.59
2019-05-01T15:24:15.969Z,26.12
2019-05-01T15:26:42.541Z,27.05
2019-05-01T15:29:09.294Z,27.04
2019-05-01T15:31:36.051Z,28.63
2019-05-01T15:34:02.826Z,27.43
2019-05-01T15:36:29.492Z,25.51
2019-05-01T15:38:56.854Z,24.73
2019-05-01T15:41:49.285Z,24.76
2019-05-01T15:44:17.609Z,25.58
2019-05-01T15:46:44.607Z,25.50
2019-05-01T15:49:11.272Z,24.49
2019-05-01T15:51:37.925Z,23.67
2019-05-01T15:54:04.702Z,23.68
2019-05-01T15:56:31.357Z,24.15
2019-05-01T15:58:58.092Z,25.35
2019-05-01T16:01:24.646Z,26.12
2019-05-01T16:03:51.325Z,23.05
2019-05-01T16:06:17.981Z,23.13
2019-05-01T16:08:44.674Z,24.52
2019-05-01T16:11:20.182Z,24.75
2019-05-01T16:13:46.851Z,23.56
2019-05-01T16:16:13.411Z,22.53
2019-05-01T16:18:40.088Z,22.56
2019-05-01T16:21:06.727Z,21.89
2019-05-01T16:23:33.520Z,21.45
2019-05-01T16:26:00.367Z,21.40
2019-05-01T16:28:27.033Z,20.94
2019-05-01T16:30:53.614Z,21.72
2019-05-01T16:33:20.386Z,21.14
2019-05-01T16:35:47.066Z,22.17
2019-05-01T16:38:23.202Z,22.51
2019-05-01T16:41:05.261Z,22.26
2019-05-01T16:43:32.039Z,22.03
2019-05-01T16:45:59.718Z,21.67
2019-05-01T16:48:26.500Z,20.57
2019-05-01T16:50:53.164Z,20.63
2019-05-01T16:53:19.979Z,20.74
2019-05-01T16:55:46.684Z,20.45
2019-05-01T16:58:15.265Z,20.41
2019-05-01T17:00:57.462Z,19.69
2019-05-01T17:03:29.114Z,19.61
2019-05-01T17:06:10.665Z,19.32
2019-05-01T17:08:46.752Z,19.07
2019-05-01T17:11:13.513Z,19.22
2019-05-01T17:13:40.394Z,18.98
2019-05-01T17:16:07.153Z,19.24
2019-05-01T17:18:33.847Z,19.29
2019-05-01T17:21:00.623Z,19.13
2019-05-01T17:23:27.183Z,18.41
2019-05-01T17:25:54.001Z,18.27
2019-05-01T17:28:20.726Z,18.29
2019-05-01T17:30:52.694Z,18.32
2019-05-01T17:33:22.044Z,18.33
2019-05-01T17:35:48.189Z,18.11
2019-05-01T17:38:14.963Z,18.22
2019-05-01T17:40:41.713Z,18.07
2019-05-01T17:43:13.389Z,18.12
2019-05-01T17:45:37.055Z,18.03
2019-05-01T17:48:04.019Z,17.65
2019-05-01T17:50:30.690Z,17.61
2019-05-01T17:52:57.382Z,17.59
2019-05-01T17:55:24.151Z,17.67
2019-05-01T17:57:50.799Z,17.58
2019-05-01T18:00:38.684Z,17.46
2019-05-01T18:03:20.675Z,17.44
2019-05-01T18:06:13.005Z,17.43
2019-05-01T18:08:39.651Z,17.13
2019-05-01T18:11:09.235Z,17.01
2019-05-01T18:13:35.130Z,17.14
2019-05-01T18:16:01.996Z,16.89
2019-05-01T18:18:28.844Z,16.88
2019-05-01T18:20:55.621Z,16.77
2019-05-01T18:23:42.763Z,16.70
2019-05-01T18:26:34.518Z,16.68
2019-05-01T18:29:07.981Z,16.44
2019-05-01T18:31:34.745Z,16.41
2019-05-01T18:34:02.961Z,16.29
2019-05-01T18:36:35.804Z,16.30
2019-05-01T18:39:34.032Z,16.23
2019-05-01T18:42:03.220Z,16.15
2019-05-01T18:44:29.997Z,15.90
2019-05-01T18:46:56.801Z,16.02
2019-05-01T18:49:23.581Z,15.83
2019-05-01T18:51:50.335Z,15.65
2019-05-01T18:54:17.119Z,15.37
2019-05-01T18:56:43.891Z,15.23
2019-05-01T18:59:10.576Z,15.13
2019-05-01T19:01:37.608Z,15.06
2019-05-01T19:04:04.359Z,15.01
2019-05-01T19:06:41.059Z,15.13
2019-05-01T19:08:59.741Z,15.11
2019-05-01T19:11:26.505Z,14.79
2019-05-01T19:13:53.261Z,14.75
2019-05-01T19:16:20.051Z,14.56
2019-05-01T19:18:46.819Z,14.43
2019-05-01T19:21:14.579Z,14.24
2019-05-01T19:23:41.325Z,14.20
2019-05-01T19:26:07.915Z,14.05
2019-05-01T19:28:34.685Z,13.99
2019-05-01T19:31:01.467Z,13.98
2019-05-01T19:33:28.580Z,13.96
2019-05-01T19:35:55.271Z,13.86
2019-05-01T19:38:22.341Z,13.95
2019-05-01T19:40:49.115Z,13.83
2019-05-01T19:43:15.886Z,13.89
2019-05-01T19:45:42.697Z,13.85
2019-05-01T19:48:09.572Z,13.91
2019-05-01T19:50:39.871Z,13.79
2019-05-01T19:53:05.089Z,13.72
2019-05-01T19:55:31.870Z,13.63
2019-05-01T19:57:59.124Z,13.56
2019-05-01T20:00:58.226Z,13.62
2019-05-01T20:03:24.960Z,13.52
2019-05-01T20:05:51.861Z,13.44
2019-05-01T20:08:18.521Z,13.33
2019-05-01T20:10:45.250Z,13.22
2019-05-01T20:13:13.300Z,13.03
2019-05-01T20:15:40.239Z,13.12
2019-05-01T20:18:06.897Z,13.07
2019-05-01T20:20:33.847Z,13.15
2019-05-01T20:23:00.499Z,13.07
2019-05-01T20:25:27.193Z,12.82
2019-05-01T20:27:53.957Z,12.81
2019-05-01T20:30:20.848Z,12.81
2019-05-01T20:32:47.614Z,12.76
2019-05-01T20:35:14.279Z,12.63
2019-05-01T20:37:40.971Z,12.58
2019-05-01T20:40:11.137Z,12.39
2019-05-01T20:42:36.618Z,12.32
2019-05-01T20:45:05.341Z,12.27
2019-05-01T20:47:35.228Z,12.23
2019-05-01T20:50:00.700Z,12.21
2019-05-01T20:52:27.368Z,12.10
2019-05-01T20:54:54.132Z,12.14
2019-05-01T20:57:26.377Z,12.18
2019-05-01T20:59:53.145Z,12.04
2019-05-01T21:02:19.842Z,11.98
2019-05-01T21:04:55.963Z,11.86
2019-05-01T21:07:29.535Z,11.79
2019-05-01T21:09:57.860Z,11.90
2019-05-01T21:12:25.205Z,11.84
2019-05-01T21:14:51.867Z,11.71
2019-05-01T21:17:18.653Z,11.82
2019-05-01T21:19:45.306Z,11.75
2019-05-01T21:22:14.100Z,11.73
2019-05-01T21:24:40.634Z,11.64
2019-05-01T21:27:07.487Z,11.54
2019-05-01T21:29:34.363Z,11.49
2019-05-01T21:32:03.343Z,11.60
2019-05-01T21:34:29.979Z,11.63
2019-05-01T21:36:56.807Z,11.56
2019-05-01T21:39:26.352Z,11.47
2019-05-01T21:41:53.273Z,11.46
2019-05-01T21:44:20.102Z,11.37
2019-05-01T21:46:46.876Z,11.33
2019-05-01T21:49:13.540Z,11.21
2019-05-01T21:51:42.290Z,11.17
2019-05-01T21:54:08.779Z,11.16
2019-05-01T21:56:36.971Z,11.05
2019-05-01T21:59:08.389Z,10.98
2019-05-01T22:01:34.872Z,10.90
2019-05-01T22:04:01.528Z,10.86
2019-05-01T22:06:28.313Z,10.70
2019-05-01T22:08:55.100Z,10.69
2019-05-01T22:11:21.843Z,10.68
2019-05-01T22:13:48.608Z,10.66
2019-05-01T22:16:26.092Z,10.47
2019-05-01T22:19:07.383Z,10.22
2019-05-01T22:21:59.402Z,10.22
2019-05-01T22:24:54.570Z,10.22
2019-05-01T22:27:25.298Z,10.06
2019-05-01T22:30:05.658Z,10.05
2019-05-01T22:32:41.513Z,10.11
2019-05-01T22:35:35.431Z,10.06
2019-05-01T22:38:04.124Z,10.06
2019-05-01T22:41:06.399Z,10.09
2019-05-01T22:43:28.306Z,9.96
2019-05-01T22:45:56.334Z,9.84
2019-05-01T22:48:23.790Z,9.69
2019-05-01T22:50:53.097Z,9.73
2019-05-01T22:53:19.718Z,9.61
2019-05-01T22:55:46.370Z,9.45
2019-05-01T22:58:13.086Z,9.50
2019-05-01T23:00:47.224Z,9.68
2019-05-01T23:03:19.693Z,9.45
2019-05-01T23:05:46.334Z,9.20
2019-05-01T23:08:13.112Z,9.02
2019-05-01T23:10:41.883Z,8.90
2019-05-01T23:13:08.591Z,8.73
2019-05-01T23:15:35.437Z,8.74
2019-05-01T23:18:02.209Z,8.69
2019-05-01T23:20:28.868Z,8.76
2019-05-01T23:22:55.629Z,8.94
2019-05-01T23:25:22.290Z,9.03
2019-05-01T23:27:48.978Z,9.08
2019-05-01T23:30:17.632Z,9.06
2019-05-01T23:32:44.460Z,8.97
2019-05-01T23:35:11.910Z,8.78
2019-05-01T23:37:38.603Z,8.53
2019-05-01T23:40:05.594Z,8.38
2019-05-01T23:42:32.368Z,8.29
2019-05-01T23:44:59.116Z,8.38
2019-05-01T23:47:25.914Z,8.70
2019-05-01T23:49:53.812Z,8.60
2019-05-01T23:52:20.761Z,8.73
2019-05-01T23:54:47.441Z,8.70
2019-05-01T23:57:14.953Z,8.70
2019-05-01T23:59:42.735Z,8.67
